createdAt,value
2018-09-04T11:46:25.178Z,18.10
2018-09-04T11:47:25.075Z,16.70
2018-09-04T11:48:25.081Z,16.40
2018-09-04T11:49:25.103Z,13.30
2018-09-04T11:50:25.113Z,15.20
2018-09-04T11:51:25.127Z,15.90
2018-09-04T11:52:25.224Z,19.40
2018-09-04T11:53:25.154Z,19.20
2018-09-04T11:54:25.177Z,17.60
2018-09-04T11:55:25.190Z,17.80
2018-09-04T11:56:25.207Z,19.10
2018-09-04T11:57:25.222Z,15.20
2018-09-04T11:58:25.258Z,19.30
2018-09-04T11:59:25.262Z,19.90
2018-09-04T12:00:25.277Z,16.30
2018-09-04T12:01:25.298Z,24.00
2018-09-04T12:02:25.314Z,22.70
2018-09-04T12:03:25.339Z,22.30
2018-09-04T12:04:25.370Z,16.50
2018-09-04T12:05:25.381Z,14.70
2018-09-04T12:06:25.393Z,20.30
2018-09-04T12:07:25.413Z,20.30
2018-09-04T12:08:25.538Z,18.40
2018-09-04T12:09:25.449Z,19.30
2018-09-04T12:10:25.548Z,20.40
2018-09-04T12:11:25.495Z,17.70
2018-09-04T12:12:25.685Z,15.40
2018-09-04T12:13:25.529Z,11.80
2018-09-04T12:14:25.557Z,15.90
2018-09-04T12:15:25.586Z,15.00
2018-09-04T12:16:25.597Z,15.40
2018-09-04T12:17:25.617Z,11.50
2018-09-04T12:18:25.633Z,12.20
2018-09-04T12:19:25.659Z,16.10
2018-09-04T12:20:25.674Z,13.90
2018-09-04T12:21:25.695Z,13.20
2018-09-04T12:22:25.718Z,12.30
2018-09-04T12:23:25.733Z,16.40
2018-09-04T12:24:25.750Z,14.70
2018-09-04T12:25:25.778Z,12.70
2018-09-04T12:26:25.794Z,16.60
2018-09-04T12:27:25.818Z,14.40
2018-09-04T12:28:25.832Z,12.80
2018-09-04T12:29:25.856Z,17.20
2018-09-04T12:30:25.877Z,11.80
2018-09-04T12:31:25.898Z,10.70
2018-09-04T12:32:25.917Z,12.70
2018-09-04T12:33:25.933Z,12.80
2018-09-04T12:34:25.980Z,14.00
2018-09-04T12:35:25.979Z,14.40
2018-09-04T12:36:26.008Z,13.30
2018-09-04T12:37:26.018Z,13.30
2018-09-04T12:38:26.033Z,10.60
2018-09-04T12:39:26.061Z,13.70
2018-09-04T12:40:26.078Z,12.80
2018-09-04T12:41:26.098Z,15.60
2018-09-04T12:42:26.169Z,13.10
2018-09-04T12:43:26.133Z,11.50
2018-09-04T12:44:26.235Z,12.20
2018-09-04T12:45:26.181Z,12.50
2018-09-04T12:46:26.198Z,13.70
2018-09-04T12:47:26.297Z,11.30
2018-09-04T12:48:26.256Z,13.30
2018-09-04T12:49:26.253Z,12.10
2018-09-04T12:50:26.273Z,11.90
2018-09-04T12:51:26.298Z,13.50
2018-09-04T12:52:26.318Z,13.30
2018-09-04T12:53:26.370Z,13.40
2018-09-04T12:54:26.351Z,13.60
2018-09-04T12:55:26.378Z,14.80
2018-09-04T12:56:26.400Z,13.30
2018-09-04T12:57:26.415Z,15.10
2018-09-04T12:58:26.433Z,14.40
2018-09-04T12:59:26.469Z,15.00
2018-09-04T13:00:26.480Z,13.00
2018-09-04T13:01:26.494Z,14.10
2018-09-04T13:02:26.514Z,15.00
2018-09-04T13:03:26.534Z,14.60
2018-09-04T13:04:26.548Z,12.90
2018-09-04T13:05:26.778Z,14.80
2018-09-04T13:06:26.877Z,15.40
2018-09-04T13:07:26.618Z,15.10
2018-09-04T13:08:26.633Z,17.10
2018-09-04T13:09:26.649Z,15.20
2018-09-04T13:10:26.670Z,14.50
2018-09-04T13:11:26.698Z,14.30
2018-09-04T13:12:26.718Z,12.10
2018-09-04T13:13:26.730Z,14.30
2018-09-04T13:14:26.776Z,15.20
2018-09-04T13:15:26.769Z,16.40
2018-09-04T13:16:26.793Z,12.70
2018-09-04T13:17:26.837Z,14.50
2018-09-04T13:18:26.837Z,13.10
2018-09-04T13:19:26.860Z,12.50
2018-09-04T13:20:26.875Z,14.00
2018-09-04T13:21:26.893Z,13.80
2018-09-04T13:22:26.914Z,36.10
2018-09-04T13:23:26.938Z,13.00
2018-09-04T13:24:26.961Z,14.70
2018-09-04T13:25:26.991Z,13.70
2018-09-04T13:26:27.003Z,15.40
2018-09-04T13:27:27.021Z,13.80
2018-09-04T13:28:27.046Z,15.80
2018-09-04T13:29:27.059Z,14.30
2018-09-04T13:30:27.085Z,18.30
2018-09-04T13:31:27.102Z,12.60
2018-09-04T13:32:27.129Z,13.80
2018-09-04T13:33:27.156Z,14.00
2018-09-04T13:34:27.246Z,15.90
2018-09-04T13:35:27.394Z,17.00
2018-09-04T13:36:27.447Z,62.00
2018-09-04T13:37:27.238Z,13.90
2018-09-04T13:38:27.249Z,16.00
2018-09-04T13:39:27.276Z,14.80
2018-09-04T13:40:27.290Z,13.00
2018-09-04T13:41:27.317Z,15.90
2018-09-04T13:42:27.341Z,16.00
2018-09-04T13:43:27.362Z,17.10
2018-09-04T13:44:27.374Z,19.20
2018-09-04T13:45:27.399Z,14.60
2018-09-04T13:46:27.424Z,14.80
2018-09-04T13:47:27.441Z,24.30
2018-09-04T13:48:27.543Z,13.60
2018-09-04T13:49:27.615Z,13.40
2018-09-04T13:50:27.506Z,16.10
2018-09-04T13:51:27.519Z,16.30
2018-09-04T13:52:27.545Z,16.20
2018-09-04T13:53:27.561Z,14.30
2018-09-04T13:54:27.658Z,15.50
2018-09-04T13:55:27.606Z,15.80
2018-09-04T13:56:27.629Z,13.40
2018-09-04T13:57:27.645Z,13.20
2018-09-04T13:58:27.672Z,14.60
2018-09-04T13:59:27.693Z,13.70
2018-09-04T14:00:27.714Z,15.30
2018-09-04T14:01:27.733Z,13.50
2018-09-04T14:02:27.752Z,14.20
2018-09-04T14:03:27.784Z,13.60
2018-09-04T14:04:27.892Z,12.50
2018-09-04T14:05:27.817Z,14.10
2018-09-04T14:06:28.043Z,12.10
2018-09-04T14:07:28.100Z,13.10
2018-09-04T14:08:27.894Z,14.10
2018-09-04T14:09:27.908Z,16.00
2018-09-04T14:10:27.935Z,16.70
2018-09-04T14:11:27.952Z,16.00
2018-09-04T14:12:27.974Z,15.00
2018-09-04T14:13:28.000Z,15.80
2018-09-04T14:14:28.012Z,13.00
2018-09-04T14:15:28.032Z,14.60
2018-09-04T14:16:28.069Z,12.90
2018-09-04T14:17:28.081Z,15.60
2018-09-04T14:18:28.100Z,13.90
2018-09-04T14:19:28.125Z,14.30
2018-09-04T14:20:28.141Z,14.40
2018-09-04T14:21:28.170Z,15.20
2018-09-04T14:22:28.260Z,14.60
2018-09-04T14:23:28.212Z,14.60
2018-09-04T14:24:28.228Z,14.90
2018-09-04T14:25:28.273Z,14.30
2018-09-04T14:26:28.274Z,15.60
2018-09-04T14:27:28.298Z,13.40
2018-09-04T14:28:41.912Z,14.00
2018-09-04T14:30:15.535Z,17.40
2018-09-04T14:30:28.433Z,15.00
2018-09-04T14:31:28.389Z,14.40
2018-09-04T14:32:28.406Z,15.80
2018-09-04T14:33:28.421Z,15.70
2018-09-04T14:34:28.448Z,14.90
2018-09-04T14:35:28.464Z,16.40
2018-09-04T14:36:28.717Z,14.90
2018-09-04T14:37:28.521Z,18.20
2018-09-04T14:38:28.529Z,20.00
2018-09-04T14:39:28.545Z,17.80
2018-09-04T14:40:28.566Z,15.70
2018-09-04T14:41:28.589Z,15.50
2018-09-04T14:42:28.609Z,13.00
2018-09-04T14:43:28.652Z,14.70
2018-09-04T14:44:28.661Z,11.60
2018-09-04T14:45:28.678Z,16.70
2018-09-04T14:46:28.693Z,16.10
2018-09-04T14:47:28.718Z,16.10
2018-09-04T14:48:28.739Z,14.80
2018-09-04T14:49:28.760Z,15.40
2018-09-04T14:50:28.786Z,15.50
2018-09-04T14:51:28.804Z,15.70
2018-09-04T14:52:28.820Z,11.60
2018-09-04T14:53:28.841Z,14.50
2018-09-04T14:54:28.875Z,17.20
2018-09-04T14:55:28.893Z,16.80
2018-09-04T14:56:28.907Z,15.00
2018-09-04T14:57:28.929Z,14.40
2018-09-04T14:58:28.958Z,13.20
2018-09-04T14:59:28.974Z,13.10
2018-09-04T15:00:28.993Z,13.40
2018-09-04T15:01:29.037Z,18.50
2018-09-04T15:02:29.044Z,16.60
2018-09-04T15:03:29.097Z,16.30
2018-09-04T15:04:29.077Z,16.30
2018-09-04T15:05:29.109Z,18.40
2018-09-04T15:06:29.142Z,15.70
2018-09-04T15:07:29.149Z,16.70
2018-09-04T15:08:29.163Z,14.10
2018-09-04T15:09:29.398Z,17.30
2018-09-04T15:10:29.213Z,19.00
2018-09-04T15:11:29.284Z,15.70
2018-09-04T15:12:29.260Z,15.90
2018-09-04T15:13:29.277Z,18.50
2018-09-04T15:14:29.359Z,15.70
2018-09-04T15:15:29.446Z,16.60
2018-09-04T15:16:29.342Z,15.00
2018-09-04T15:17:29.357Z,14.80
2018-09-04T15:18:29.436Z,14.80
2018-09-04T15:19:29.425Z,14.50
2018-09-04T15:20:29.420Z,18.90
2018-09-04T15:21:30.800Z,16.90
2018-09-04T15:22:29.469Z,14.30
2018-09-04T15:23:29.488Z,17.20
2018-09-04T15:24:29.508Z,15.20
2018-09-04T15:25:29.667Z,14.50
2018-09-04T15:26:29.555Z,17.20
2018-09-04T15:28:29.646Z,16.00
2018-09-04T15:29:29.621Z,15.10
2018-09-04T15:30:29.637Z,18.00
2018-09-04T15:31:29.745Z,16.40
2018-09-04T15:32:29.682Z,19.20
2018-09-04T15:33:29.708Z,16.20
2018-09-04T15:34:29.721Z,20.40
2018-09-04T15:35:29.744Z,16.30
2018-09-04T15:36:29.769Z,17.30
2018-09-04T15:37:29.790Z,18.10
2018-09-04T15:38:29.809Z,17.10
2018-09-04T15:40:29.849Z,19.90
2018-09-04T15:41:29.867Z,18.00
2018-09-04T15:42:29.932Z,21.60
2018-09-04T15:43:29.909Z,21.80
2018-09-04T15:44:29.929Z,17.80
2018-09-04T15:45:29.944Z,17.90
2018-09-04T15:46:29.965Z,19.10
2018-09-04T15:47:29.985Z,19.90
2018-09-04T15:48:30.009Z,20.80
2018-09-04T15:49:30.119Z,19.60
2018-09-04T15:50:30.049Z,16.80
2018-09-04T15:51:30.073Z,17.90
2018-09-04T15:52:30.292Z,20.20
2018-09-04T15:53:30.105Z,18.10
2018-09-04T15:54:30.128Z,18.70
2018-09-04T15:55:30.148Z,16.00
2018-09-04T15:56:30.197Z,20.80
2018-09-04T15:57:30.190Z,31.00
2018-09-04T15:58:30.209Z,21.10
2018-09-04T15:59:30.228Z,17.60
2018-09-04T16:00:30.248Z,19.90
2018-09-04T16:01:30.320Z,19.90
2018-09-04T16:02:30.300Z,21.20
2018-09-04T16:03:30.312Z,15.10
2018-09-04T16:04:30.332Z,20.20
2018-09-04T16:05:30.350Z,17.30
2018-09-04T16:06:30.367Z,16.30
2018-09-04T16:07:30.424Z,17.30
2018-09-04T16:08:30.412Z,18.20
2018-09-04T16:09:30.436Z,19.80
2018-09-04T16:10:30.460Z,17.70
2018-09-04T16:11:30.476Z,21.50
2018-09-04T16:12:30.492Z,18.40
2018-09-04T16:13:30.508Z,19.60
2018-09-04T16:14:30.528Z,19.30
2018-09-04T16:15:30.551Z,18.80
2018-09-04T16:16:30.573Z,16.40
2018-09-04T16:17:30.603Z,18.60
2018-09-04T16:18:30.615Z,18.20
2018-09-04T16:19:30.635Z,18.00
2018-09-04T16:20:30.652Z,18.80
2018-09-04T16:21:30.676Z,17.40
2018-09-04T16:22:30.692Z,15.50
2018-09-04T16:23:30.711Z,19.80
2018-09-04T16:24:30.782Z,18.90
2018-09-04T16:25:30.757Z,17.10
2018-09-04T16:26:30.794Z,15.50
2018-09-04T16:27:30.795Z,14.60
2018-09-04T16:28:30.816Z,20.00
2018-09-04T16:29:30.834Z,18.90
2018-09-04T16:30:30.851Z,16.10
2018-09-04T16:31:30.871Z,19.10
2018-09-04T16:32:30.979Z,19.60
2018-09-04T16:33:30.911Z,20.20
2018-09-04T16:34:31.080Z,20.70
2018-09-04T16:35:30.969Z,17.20
2018-09-04T16:36:30.980Z,19.00
2018-09-04T16:37:30.996Z,18.80
2018-09-04T16:38:31.032Z,19.90
2018-09-04T16:39:31.041Z,19.80
2018-09-04T16:40:31.047Z,19.90
2018-09-04T16:41:31.135Z,21.60
2018-09-04T16:42:31.084Z,22.80
2018-09-04T16:43:31.103Z,18.20
2018-09-04T16:44:31.169Z,19.40
2018-09-04T16:45:31.148Z,18.10
2018-09-04T16:46:31.159Z,19.90
2018-09-04T16:47:31.183Z,17.50
2018-09-04T16:48:31.207Z,20.90
2018-09-04T16:49:31.219Z,19.30
2018-09-04T16:50:31.312Z,20.10
2018-09-04T16:51:31.260Z,18.10
2018-09-04T16:52:31.284Z,20.50
2018-09-04T16:53:31.299Z,20.50
2018-09-04T16:54:31.315Z,19.90
2018-09-04T16:55:31.336Z,18.70
2018-09-04T16:56:31.386Z,21.10
2018-09-04T16:57:31.425Z,19.70
2018-09-04T16:58:31.398Z,21.10
2018-09-04T16:59:31.411Z,24.30
2018-09-04T17:00:31.431Z,21.80
2018-09-04T17:01:31.451Z,20.30
2018-09-04T17:02:31.467Z,21.90
2018-09-04T17:03:31.491Z,21.60
2018-09-04T17:04:31.503Z,20.50
2018-09-04T17:05:31.524Z,20.60
2018-09-04T17:06:31.539Z,22.20
2018-09-04T17:07:31.571Z,21.40
2018-09-04T17:08:31.583Z,22.60
2018-09-04T17:09:31.595Z,20.60
2018-09-04T17:10:31.619Z,24.10
2018-09-04T17:11:31.641Z,21.80
2018-09-04T17:12:31.650Z,22.10
2018-09-04T17:13:31.676Z,20.60
2018-09-04T17:14:31.691Z,18.10
2018-09-04T17:15:31.775Z,20.00
2018-09-04T17:16:31.726Z,26.50
2018-09-04T17:17:31.743Z,20.40
2018-09-04T17:18:31.859Z,20.70
2018-09-04T17:19:31.775Z,20.40
2018-09-04T17:20:31.795Z,20.60
2018-09-04T17:21:31.819Z,19.80
2018-09-04T17:22:32.131Z,21.10
2018-09-04T17:23:32.054Z,23.00
2018-09-04T17:24:31.867Z,19.30
2018-09-04T17:25:31.886Z,23.80
2018-09-04T17:26:31.902Z,23.30
2018-09-04T17:27:31.927Z,21.60
2018-09-04T17:28:31.946Z,19.10
2018-09-04T17:29:31.957Z,18.70
2018-09-04T17:30:31.990Z,19.80
2018-09-04T17:31:31.999Z,21.20
2018-09-04T17:32:32.010Z,19.00
2018-09-04T17:33:32.039Z,16.50
2018-09-04T17:34:32.050Z,20.60
2018-09-04T17:35:32.071Z,15.50
2018-09-04T17:36:32.094Z,16.90
2018-09-04T17:37:32.111Z,16.60
2018-09-04T17:38:32.126Z,16.20
2018-09-04T17:39:32.143Z,17.50
2018-09-04T17:40:32.199Z,17.50
2018-09-04T17:41:32.182Z,20.70
2018-09-04T17:42:32.199Z,18.30
2018-09-04T17:43:32.218Z,19.80
2018-09-04T17:44:32.234Z,17.80
2018-09-04T17:45:32.256Z,19.00
2018-09-04T17:46:32.295Z,16.60
2018-09-04T17:47:32.325Z,19.40
2018-09-04T17:48:32.311Z,17.80
2018-09-04T17:49:32.331Z,16.70
2018-09-04T17:50:32.350Z,16.80
2018-09-04T17:51:32.370Z,20.90
2018-09-04T17:52:32.391Z,18.50
2018-09-04T17:53:32.402Z,20.90
2018-09-04T17:54:32.422Z,15.90
2018-09-04T17:55:32.430Z,18.70
2018-09-04T17:56:32.453Z,18.90
2018-09-04T17:57:32.474Z,20.50
2018-09-04T17:58:32.486Z,26.70
2018-09-04T17:59:32.508Z,18.50
2018-09-04T18:00:32.567Z,17.50
2018-09-04T18:01:32.536Z,18.80
2018-09-04T18:02:32.562Z,18.70
2018-09-04T18:03:32.592Z,22.50
2018-09-04T18:04:32.641Z,17.90
2018-09-04T18:05:32.610Z,15.20
2018-09-04T18:06:32.659Z,20.00
2018-09-04T18:07:32.650Z,14.10
2018-09-04T18:08:32.661Z,18.00
2018-09-04T18:09:32.681Z,16.20
2018-09-04T18:10:32.755Z,19.90
2018-09-04T18:11:32.722Z,18.90
2018-09-04T18:12:32.740Z,16.70
2018-09-04T18:13:32.761Z,15.80
2018-09-04T18:14:32.775Z,15.70
2018-09-04T18:15:32.793Z,16.10
2018-09-04T18:16:32.805Z,15.20
2018-09-04T18:17:32.827Z,15.50
2018-09-04T18:18:32.842Z,15.10
2018-09-04T18:19:32.866Z,17.00
2018-09-04T18:20:32.878Z,17.60
2018-09-04T18:21:33.105Z,17.50
2018-09-04T18:22:33.117Z,14.60
2018-09-04T18:23:32.930Z,17.50
2018-09-04T18:24:32.946Z,17.60
2018-09-04T18:25:32.965Z,17.30
2018-09-04T18:26:32.982Z,17.40
2018-09-04T18:27:33.005Z,17.70
2018-09-04T18:28:33.034Z,17.90
2018-09-04T18:29:33.045Z,17.60
2018-09-04T18:30:33.049Z,17.00
2018-09-04T18:31:33.070Z,19.40
2018-09-04T18:32:33.082Z,16.60
2018-09-04T18:33:33.107Z,17.70
2018-09-04T18:34:33.181Z,19.60
2018-09-04T18:35:33.138Z,18.90
2018-09-04T18:36:33.155Z,18.20
2018-09-04T18:37:33.177Z,18.70
2018-09-04T18:38:33.196Z,21.40
2018-09-04T18:39:33.210Z,19.70
2018-09-04T18:40:33.219Z,20.20
2018-09-04T18:41:33.246Z,21.40
2018-09-04T18:42:33.261Z,20.10
2018-09-04T18:43:33.282Z,22.50
2018-09-04T18:44:33.298Z,21.60
2018-09-04T18:45:33.314Z,18.90
2018-09-04T18:46:33.333Z,22.10
2018-09-04T18:47:33.346Z,20.30
2018-09-04T18:48:33.390Z,22.50
2018-09-04T18:49:33.383Z,24.90
2018-09-04T18:50:33.406Z,20.80
2018-09-04T18:51:33.420Z,20.30
2018-09-04T18:52:33.450Z,20.00
2018-09-04T18:53:33.508Z,21.30
2018-09-04T18:54:33.474Z,20.70
2018-09-04T18:55:33.492Z,20.90
2018-09-04T18:56:33.504Z,20.20
2018-09-04T18:57:33.528Z,20.50
2018-09-04T18:58:33.543Z,23.90
2018-09-04T18:59:33.699Z,20.70
2018-09-04T19:00:33.583Z,24.80
2018-09-04T19:01:33.604Z,22.20
2018-09-04T19:02:33.611Z,21.20
2018-09-04T19:03:33.629Z,25.40
2018-09-04T19:04:33.647Z,20.60
2018-09-04T19:05:33.708Z,23.10
2018-09-04T19:06:33.680Z,23.60
2018-09-04T19:07:33.698Z,26.10
2018-09-04T19:08:33.711Z,22.90
2018-09-04T19:09:33.735Z,23.80
2018-09-04T19:10:33.751Z,27.50
2018-09-04T19:11:33.787Z,21.90
2018-09-04T19:12:33.782Z,22.00
2018-09-04T19:13:33.805Z,24.80
2018-09-04T19:14:33.823Z,24.30
2018-09-04T19:15:33.844Z,22.20
2018-09-04T19:16:33.856Z,25.70
2018-09-04T19:17:33.871Z,26.00
2018-09-04T19:18:33.891Z,28.30
2018-09-04T19:19:33.913Z,25.10
2018-09-04T19:20:33.931Z,27.60
2018-09-04T19:21:33.944Z,23.60
2018-09-04T19:22:33.968Z,22.50
2018-09-04T19:23:33.980Z,23.60
2018-09-04T19:24:33.995Z,24.40
2018-09-04T19:25:34.015Z,22.80
2018-09-04T19:26:34.036Z,26.70
2018-09-04T19:27:34.056Z,27.10
2018-09-04T19:28:34.072Z,24.40
2018-09-04T19:29:34.088Z,24.90
2018-09-04T19:30:34.108Z,23.70
2018-09-04T19:31:34.122Z,23.40
2018-09-04T19:32:34.143Z,24.20
2018-09-04T19:33:34.151Z,21.80
2018-09-04T19:34:34.176Z,23.20
2018-09-04T19:35:34.192Z,24.70
2018-09-04T19:36:34.206Z,22.40
2018-09-04T19:37:34.257Z,21.90
2018-09-04T19:38:34.252Z,25.20
2018-09-04T19:39:34.285Z,24.80
2018-09-04T19:40:34.280Z,23.90
2018-09-04T19:41:34.296Z,20.50
2018-09-04T19:42:34.362Z,22.40
2018-09-04T19:43:34.326Z,22.70
2018-09-04T19:44:34.347Z,22.60
2018-09-04T19:45:34.368Z,23.50
2018-09-04T19:46:34.384Z,21.80
2018-09-04T19:47:34.399Z,22.50
2018-09-04T19:48:34.415Z,20.70
2018-09-04T19:49:34.451Z,23.20
2018-09-04T19:50:34.455Z,22.00
2018-09-04T19:51:34.471Z,24.90
2018-09-04T19:52:34.491Z,21.50
2018-09-04T19:53:34.508Z,21.40
2018-09-04T19:54:34.530Z,21.30
2018-09-04T19:55:34.549Z,21.80
2018-09-04T19:56:34.560Z,20.90
2018-09-04T19:57:34.588Z,21.00
2018-09-04T19:58:34.599Z,20.70
2018-09-04T19:59:34.632Z,18.70
2018-09-04T20:00:34.635Z,21.80
2018-09-04T20:01:34.651Z,20.30
2018-09-04T20:02:34.667Z,23.20
2018-09-04T20:03:34.688Z,24.30
2018-09-04T20:04:34.704Z,24.70
2018-09-04T20:05:34.724Z,20.30
2018-09-04T20:06:34.735Z,21.90
2018-09-04T20:07:34.756Z,20.10
2018-09-04T20:08:34.779Z,21.20
2018-09-04T20:09:34.792Z,23.70
2018-09-04T20:10:34.808Z,22.00
2018-09-04T20:11:34.827Z,21.50
2018-09-04T20:12:34.844Z,22.90
2018-09-04T20:13:34.936Z,23.60
2018-09-04T20:14:34.880Z,23.10
2018-09-04T20:15:34.900Z,26.90
2018-09-04T20:16:34.920Z,25.00
2018-09-04T20:17:34.932Z,24.30
2018-09-04T20:18:34.957Z,36.00
2018-09-04T20:19:34.976Z,26.70
2018-09-04T20:20:34.996Z,27.70
2018-09-04T20:21:35.061Z,22.50
2018-09-04T20:22:35.020Z,29.40
2018-09-04T20:23:35.043Z,27.40
2018-09-04T20:24:35.062Z,25.90
2018-09-04T20:25:35.080Z,25.10
2018-09-04T20:26:35.091Z,23.60
2018-09-04T20:27:35.116Z,26.00
2018-09-04T20:28:35.132Z,26.10
2018-09-04T20:29:35.387Z,26.00
2018-09-04T20:30:35.371Z,27.10
2018-09-04T20:31:35.178Z,24.40
2018-09-04T20:32:35.241Z,25.30
2018-09-04T20:33:35.224Z,25.60
2018-09-04T20:34:35.239Z,25.20
2018-09-04T20:35:35.259Z,26.80
2018-09-04T20:36:35.276Z,22.90
2018-09-04T20:37:35.291Z,22.80
2018-09-04T20:38:35.409Z,23.00
2018-09-04T20:39:35.328Z,23.70
2018-09-04T20:40:35.345Z,26.20
2018-09-04T20:41:35.561Z,24.00
2018-09-04T20:42:35.576Z,22.50
2018-09-04T20:43:35.597Z,23.60
2018-09-04T20:44:35.612Z,25.30
2018-09-04T20:45:35.433Z,24.80
2018-09-04T20:46:35.444Z,26.30
2018-09-04T20:47:35.465Z,24.30
2018-09-04T20:48:35.484Z,27.20
2018-09-04T20:49:35.511Z,25.90
2018-09-04T20:50:35.521Z,23.10
2018-09-04T20:51:35.540Z,24.50
2018-09-04T20:52:35.553Z,22.40
2018-09-04T20:53:35.576Z,24.00
2018-09-04T20:54:35.589Z,25.70
2018-09-04T20:55:35.671Z,23.30
2018-09-04T20:56:35.623Z,29.60
2018-09-04T20:57:35.646Z,28.00
2018-09-04T20:58:35.654Z,27.20
2018-09-04T20:59:35.677Z,24.80
2018-09-04T21:00:35.697Z,27.30
2018-09-04T21:01:35.798Z,25.20
2018-09-04T21:02:35.733Z,28.20
2018-09-04T21:03:35.754Z,27.40
2018-09-04T21:04:35.766Z,29.30
2018-09-04T21:05:35.792Z,27.80
2018-09-04T21:06:35.805Z,26.90
2018-09-04T21:07:35.881Z,27.20
2018-09-04T21:08:35.828Z,29.00
2018-09-04T21:09:35.849Z,23.70
2018-09-04T21:10:35.869Z,23.90
2018-09-04T21:11:35.889Z,22.80
2018-09-04T21:12:35.902Z,23.20
2018-09-04T21:13:35.925Z,25.50
2018-09-04T21:14:35.943Z,23.50
2018-09-04T21:15:35.961Z,25.30
2018-09-04T21:16:35.978Z,23.50
2018-09-04T21:17:35.993Z,22.50
2018-09-04T21:18:36.005Z,23.80
2018-09-04T21:19:36.022Z,24.90
2018-09-04T21:20:36.044Z,24.10
2018-09-04T21:21:36.061Z,27.90
2018-09-04T21:22:36.078Z,27.30
2018-09-04T21:23:36.097Z,24.00
2018-09-04T21:24:36.118Z,24.60
2018-09-04T21:25:36.132Z,24.10
2018-09-04T21:26:36.189Z,21.10
2018-09-04T21:27:36.165Z,24.00
2018-09-04T21:28:36.186Z,28.10
2018-09-04T21:29:36.204Z,22.70
2018-09-04T21:30:36.229Z,28.40
2018-09-04T21:31:36.237Z,22.70
2018-09-04T21:32:36.262Z,30.30
2018-09-04T21:33:36.274Z,26.70
2018-09-04T21:34:36.293Z,28.50
2018-09-04T21:35:36.309Z,25.60
2018-09-04T21:36:36.333Z,28.90
2018-09-04T21:37:36.346Z,25.50
2018-09-04T21:38:36.366Z,27.80
2018-09-04T21:39:36.381Z,26.00
2018-09-04T21:40:36.398Z,26.60
2018-09-04T21:41:36.415Z,30.00
2018-09-04T21:42:36.439Z,26.20
2018-09-04T21:43:36.449Z,24.50
2018-09-04T21:44:36.465Z,25.70
2018-09-04T21:45:36.482Z,29.50
2018-09-04T21:46:36.503Z,28.40
2018-09-04T21:47:36.524Z,28.60
2018-09-04T21:48:36.534Z,28.70
2018-09-04T21:49:36.558Z,28.50
2018-09-04T21:50:36.594Z,28.70
2018-09-04T21:51:36.594Z,27.10
2018-09-04T21:52:36.604Z,29.00
2018-09-04T21:53:36.626Z,26.50
2018-09-04T21:54:36.645Z,27.50
2018-09-04T21:55:36.672Z,22.30
2018-09-04T21:56:36.682Z,25.80
2018-09-04T21:57:36.702Z,28.00
2018-09-04T21:58:36.715Z,30.90
2018-09-04T21:59:36.734Z,30.50
2018-09-04T22:00:36.754Z,26.00
2018-09-04T22:01:36.765Z,31.80
2018-09-04T22:02:36.787Z,22.90
2018-09-04T22:03:36.807Z,23.90
2018-09-04T22:04:36.830Z,30.50
2018-09-04T22:05:36.843Z,29.80
2018-09-04T22:06:36.854Z,27.50
2018-09-04T22:07:36.916Z,28.20
2018-09-04T22:08:37.091Z,29.00
2018-09-04T22:09:36.910Z,29.40
2018-09-04T22:10:36.926Z,25.20
2018-09-04T22:11:36.942Z,26.70
2018-09-04T22:12:36.959Z,30.00
2018-09-04T22:13:36.983Z,24.50
2018-09-04T22:14:36.999Z,29.60
2018-09-04T22:15:37.120Z,28.70
2018-09-04T22:16:37.027Z,27.40
2018-09-04T22:17:37.047Z,28.60
2018-09-04T22:18:37.066Z,29.40
2018-09-04T22:19:37.083Z,28.90
2018-09-04T22:20:37.303Z,32.20
2018-09-04T22:21:37.118Z,29.60
2018-09-04T22:22:37.133Z,28.40
2018-09-04T22:23:37.150Z,32.70
2018-09-04T22:24:37.175Z,29.90
2018-09-04T22:25:37.187Z,27.60
2018-09-04T22:26:37.210Z,26.70
2018-09-04T22:27:37.227Z,28.70
2018-09-04T22:28:37.239Z,28.40
2018-09-04T22:29:37.263Z,28.90
2018-09-04T22:30:37.279Z,31.00
2018-09-04T22:31:37.291Z,31.40
2018-09-04T22:32:37.312Z,32.00
2018-09-04T22:33:37.332Z,27.40
2018-09-04T22:34:37.351Z,25.60
2018-09-04T22:35:37.363Z,28.10
2018-09-04T22:36:37.379Z,27.50
2018-09-04T22:37:37.391Z,27.80
2018-09-04T22:38:37.428Z,27.80
2018-09-04T22:39:37.435Z,31.30
2018-09-04T22:40:37.484Z,30.30
2018-09-04T22:41:37.467Z,30.20
2018-09-04T22:42:37.487Z,27.20
2018-09-04T22:43:37.499Z,30.10
2018-09-04T22:44:37.523Z,29.20
2018-09-04T22:45:37.536Z,30.60
2018-09-04T22:46:37.701Z,28.80
2018-09-04T22:47:37.576Z,27.40
2018-09-04T22:48:37.587Z,26.20
2018-09-04T22:49:37.607Z,27.20
2018-09-04T22:50:37.624Z,31.00
2018-09-04T22:51:37.640Z,29.70
2018-09-04T22:52:37.667Z,32.00
2018-09-04T22:53:37.680Z,29.60
2018-09-04T22:54:37.692Z,29.70
2018-09-04T22:55:37.715Z,28.90
2018-09-04T22:56:37.937Z,29.20
2018-09-04T22:57:37.747Z,33.30
2018-09-04T22:58:37.768Z,32.00
2018-09-04T22:59:37.797Z,28.70
2018-09-04T23:00:37.799Z,29.80
2018-09-04T23:01:37.828Z,27.90
2018-09-04T23:02:38.036Z,33.60
2018-09-04T23:03:37.856Z,31.30
2018-09-04T23:04:37.872Z,30.50
2018-09-04T23:05:37.887Z,30.80
2018-09-04T23:06:37.923Z,32.30
2018-09-04T23:07:37.934Z,30.20
2018-09-04T23:08:38.140Z,34.20
2018-09-04T23:09:37.966Z,34.60
2018-09-04T23:10:37.987Z,28.10
2018-09-04T23:11:38.011Z,29.80
2018-09-04T23:12:38.004Z,33.20
2018-09-04T23:13:38.024Z,32.00
2018-09-04T23:14:38.044Z,29.90
2018-09-04T23:15:38.060Z,33.70
2018-09-04T23:16:38.081Z,29.50
2018-09-04T23:17:38.096Z,28.40
2018-09-04T23:18:38.111Z,28.30
2018-09-04T23:19:38.136Z,27.60
2018-09-04T23:20:38.152Z,31.90
2018-09-04T23:21:38.169Z,28.70
2018-09-04T23:22:38.184Z,29.80
2018-09-04T23:23:38.294Z,26.30
2018-09-04T23:24:38.224Z,29.30
2018-09-04T23:25:38.236Z,29.10
2018-09-04T23:26:38.455Z,30.50
2018-09-04T23:27:38.278Z,29.90
2018-09-04T23:28:38.293Z,32.50
2018-09-04T23:29:38.312Z,30.10
2018-09-04T23:30:38.328Z,31.70
2018-09-04T23:31:38.339Z,31.90
2018-09-04T23:32:38.363Z,28.80
2018-09-04T23:33:38.379Z,27.90
2018-09-04T23:34:38.400Z,29.20
2018-09-04T23:35:38.417Z,28.20
2018-09-04T23:36:38.439Z,28.10
2018-09-04T23:37:38.448Z,30.50
2018-09-04T23:38:38.664Z,29.30
2018-09-04T23:39:38.484Z,28.40
2018-09-04T23:40:38.503Z,26.30
2018-09-04T23:41:38.580Z,26.90
2018-09-04T23:42:38.580Z,28.20
2018-09-04T23:43:38.556Z,26.20
2018-09-04T23:44:38.772Z,25.90
2018-09-04T23:45:38.590Z,28.60
2018-09-04T23:46:38.609Z,24.80
2018-09-04T23:47:38.625Z,28.90
2018-09-04T23:48:38.667Z,26.40
2018-09-04T23:49:38.660Z,29.70
2018-09-04T23:50:38.880Z,30.00
2018-09-04T23:51:38.693Z,30.30
2018-09-04T23:52:38.708Z,30.20
2018-09-04T23:53:38.725Z,29.80
2018-09-04T23:54:38.748Z,29.70
2018-09-04T23:55:39.044Z,29.10
2018-09-04T23:56:39.181Z,28.70
2018-09-04T23:57:38.799Z,30.00
2018-09-04T23:58:38.820Z,28.80
2018-09-04T23:59:38.839Z,28.80
